Time;durP1;ratioP1;P1;durP2;ratioP2;P2;SDS_P1;SDS_P2;PMS_P1;PMS_P2;Temp;Humidity;BMP_temperature;BMP_pressure;BME280_temperature;BME280_humidity;BME280_pressure;Samples;Min_cycle;Max_cycle;Signal;HPM_P1;HPM_P2
2023/03/25 00:00:58;;;;;;;10.60;1.45;;;9.80;99.90;;;;;;5117904;28;20172;-81
2023/03/25 00:03:29;;;;;;;9.82;1.48;;;9.80;99.90;;;;;;5100034;28;20036;-81
2023/03/25 00:05:56;;;;;;;14.55;1.83;;;9.70;99.90;;;;;;5100884;28;20406;-83
2023/03/25 00:08:23;;;;;;;12.07;1.95;;;9.80;99.90;;;;;;5098735;28;20127;-84
2023/03/25 00:10:58;;;;;;;8.73;1.63;;;9.70;99.90;;;;;;5100225;28;20548;-78
2023/03/25 00:13:24;;;;;;;9.70;1.80;;;9.70;99.90;;;;;;5101118;28;20066;-82
2023/03/25 00:15:52;;;;;;;9.57;1.40;;;9.70;99.90;;;;;;5100162;28;20067;-82
2023/03/25 00:18:20;;;;;;;9.43;1.63;;;9.70;99.90;;;;;;5101097;28;20051;-81
2023/03/25 00:20:49;;;;;;;12.88;2.30;;;9.70;99.90;;;;;;5100417;28;20075;-82
2023/03/25 00:23:16;;;;;;;7.18;1.63;;;9.70;99.90;;;;;;5101294;28;20055;-77
2023/03/25 00:25:43;;;;;;;;;;;9.70;99.90;;;;;;5122469;28;20506;-84
2023/03/25 00:28:10;;;;;;;;;;;9.60;99.90;;;;;;5122140;28;19927;-79
2023/03/25 00:30:38;;;;;;;11.63;3.05;;;9.60;99.90;;;;;;5120744;28;19965;-82
2023/03/25 00:33:04;;;;;;;12.82;2.55;;;9.60;99.90;;;;;;5122654;28;20051;-83
2023/03/25 00:35:31;;;;;;;12.52;2.53;;;9.50;99.90;;;;;;5122024;28;20054;-81
2023/03/25 00:38:00;;;;;;;;;;;9.60;99.90;;;;;;5121587;28;20060;-84
2023/03/25 00:40:29;;;;;;;9.85;3.50;;;9.50;99.90;;;;;;5086292;28;20428;-82
2023/03/25 00:42:56;;;;;;;10.48;2.97;;;9.50;99.90;;;;;;5120133;28;20051;-80
2023/03/25 00:45:22;;;;;;;12.18;3.38;;;9.50;99.90;;;;;;5101444;28;20476;-82
2023/03/25 00:47:48;;;;;;;15.65;4.25;;;9.50;99.90;;;;;;5102193;28;20047;-78
2023/03/25 00:50:14;;;;;;;13.55;5.22;;;9.40;99.90;;;;;;5120812;28;20044;-83
2023/03/25 00:52:40;;;;;;;13.50;3.70;;;9.40;99.90;;;;;;5102142;28;20048;-81
2023/03/25 00:55:06;;;;;;;12.60;3.60;;;9.30;99.90;;;;;;5119378;28;20041;-79
2023/03/25 00:57:32;;;;;;;14.88;3.53;;;9.30;99.90;;;;;;5119909;28;20104;-80
2023/03/25 00:59:58;;;;;;;12.02;3.72;;;9.30;99.90;;;;;;5103015;28;20051;-81
2023/03/25 01:02:24;;;;;;;12.50;3.72;;;9.30;99.90;;;;;;5120447;28;20089;-81
2023/03/25 01:04:49;;;;;;;9.00;3.40;;;9.20;99.90;;;;;;5120922;28;20043;-83
2023/03/25 01:07:19;;;;;;;17.05;4.00;;;9.20;99.90;;;;;;5103477;28;20126;-80
2023/03/25 01:09:48;;;;;;;13.45;2.90;;;9.30;99.90;;;;;;5120365;28;20493;-78
2023/03/25 01:12:15;;;;;;;12.27;3.00;;;9.20;99.90;;;;;;5102167;28;20574;-80
2023/03/25 01:14:41;;;;;;;14.63;2.70;;;9.20;99.90;;;;;;5121606;28;20047;-83
2023/03/25 01:17:07;;;;;;;11.05;2.85;;;9.20;99.90;;;;;;5102715;28;20455;-81
2023/03/25 01:19:33;;;;;;;12.38;2.28;;;9.20;99.90;;;;;;5121399;28;20048;-80
2023/03/25 01:21:59;;;;;;;13.45;2.50;;;9.30;99.90;;;;;;5084131;28;20047;-82
2023/03/25 01:24:25;;;;;;;13.30;2.88;;;9.30;99.90;;;;;;5085419;28;20051;-80
2023/03/25 01:26:51;;;;;;;15.18;2.83;;;9.30;99.90;;;;;;5119346;28;20039;-81
2023/03/25 01:29:19;;;;;;;15.20;2.35;;;9.30;99.90;;;;;;5119454;28;20044;-79
2023/03/25 01:31:46;;;;;;;18.55;2.20;;;9.30;99.90;;;;;;5120335;28;20103;-81
2023/03/25 01:34:12;;;;;;;21.03;3.53;;;9.30;99.90;;;;;;5102290;28;20159;-79
2023/03/25 01:36:38;;;;;;;12.20;1.63;;;9.30;99.90;;;;;;5101062;28;20042;-81
2023/03/25 01:39:07;;;;;;;12.90;1.83;;;9.20;99.90;;;;;;5099110;28;20434;-77
2023/03/25 01:41:34;;;;;;;10.27;1.30;;;9.10;99.90;;;;;;5119550;28;20480;-77
2023/03/25 01:44:29;;;;;;;14.50;2.00;;;9.00;99.90;;;;;;5118658;28;20099;-77
2023/03/25 01:47:00;;;;;;;18.80;2.53;;;8.80;99.90;;;;;;5046714;28;20072;-77
2023/03/25 01:49:39;;;;;;;12.38;1.80;;;8.70;99.90;;;;;;5101871;28;20052;-76
2023/03/25 01:52:11;;;;;;;11.05;1.38;;;8.80;99.90;;;;;;5122919;28;20388;-78
2023/03/25 01:54:38;;;;;;;10.85;1.40;;;8.80;99.90;;;;;;5102543;28;20048;-78
2023/03/25 01:57:05;;;;;;;9.80;1.13;;;8.80;99.90;;;;;;5103670;28;20109;-80
2023/03/25 01:59:31;;;;;;;;;;;8.80;99.90;;;;;;5070810;28;20130;-78
2023/03/25 02:02:01;;;;;;;14.03;1.40;;;8.90;99.90;;;;;;5102940;28;19966;-77
2023/03/25 02:04:37;;;;;;;11.27;1.20;;;8.90;99.90;;;;;;5122471;28;20104;-78
2023/03/25 02:07:07;;;;;;;13.63;1.45;;;8.80;99.90;;;;;;5122152;28;20094;-81
2023/03/25 02:09:33;;;;;;;17.38;2.40;;;8.70;99.90;;;;;;5122698;28;20122;-81
2023/03/25 02:11:59;;;;;;;17.90;2.60;;;8.70;99.90;;;;;;5104129;28;20357;-79
2023/03/25 02:14:31;;;;;;;15.35;1.50;;;8.60;99.90;;;;;;5123486;28;20051;-78
2023/03/25 02:17:13;;;;;;;12.60;1.42;;;8.70;99.90;;;;;;5088387;28;20043;-78
2023/03/25 02:19:56;;;;;;;10.20;1.20;;;8.70;99.90;;;;;;5121349;28;20498;-75
2023/03/25 02:22:24;;;;;;;13.95;1.42;;;8.60;99.90;;;;;;5123264;28;20409;-81
2023/03/25 02:25:25;;;;;;;14.52;1.80;;;8.50;99.90;;;;;;5104935;28;20047;-79
2023/03/25 02:28:24;;;;;;;15.50;1.80;;;8.60;99.90;;;;;;5047757;28;20049;-80
2023/03/25 02:31:10;;;;;;;19.13;1.58;;;8.50;99.90;;;;;;5119886;28;20053;-81
2023/03/25 02:33:50;;;;;;;14.63;1.67;;;8.60;99.90;;;;;;5101334;28;20568;-77
2023/03/25 02:36:32;;;;;;;16.65;1.63;;;8.60;99.90;;;;;;5118330;28;20169;-78
2023/03/25 02:39:04;;;;;;;19.73;1.80;;;8.60;99.90;;;;;;5118937;28;20483;-76
2023/03/25 02:41:46;;;;;;;14.73;1.88;;;8.60;99.90;;;;;;5119514;28;20084;-79
2023/03/25 02:44:20;;;;;;;13.68;1.77;;;8.60;99.90;;;;;;5118124;28;20051;-80
2023/03/25 02:46:53;;;;;;;11.75;1.45;;;8.60;99.90;;;;;;5083210;28;20506;-80
2023/03/25 02:49:45;;;;;;;23.40;2.10;;;8.60;99.90;;;;;;5100679;28;20054;-81
2023/03/25 02:52:17;;;;;;;20.35;1.70;;;8.60;99.90;;;;;;5108713;28;20060;-77
2023/03/25 02:54:46;;;;;;;12.55;1.75;;;8.60;99.90;;;;;;5100569;28;20039;-80
2023/03/25 02:57:17;;;;;;;15.40;2.38;;;8.60;99.90;;;;;;5118653;28;20050;-76
2023/03/25 02:59:46;;;;;;;16.67;1.70;;;8.60;99.90;;;;;;5120092;28;20357;-79
2023/03/25 03:02:14;;;;;;;19.13;1.83;;;8.50;99.90;;;;;;5099448;28;20400;-75
2023/03/25 03:04:55;;;;;;;14.68;1.33;;;8.60;99.90;;;;;;5117985;28;20043;-79
2023/03/25 03:07:31;;;;;;;17.65;2.10;;;8.60;99.90;;;;;;5117294;28;20044;-75
2023/03/25 03:10:18;;;;;;;12.65;1.77;;;8.60;99.90;;;;;;5117246;28;20138;-81
2023/03/25 03:12:51;;;;;;;14.57;1.63;;;8.60;99.90;;;;;;5117691;28;20409;-79
2023/03/25 03:15:36;;;;;;;19.38;2.78;;;8.60;99.90;;;;;;5117043;28;20086;-76
2023/03/25 03:18:14;;;;;;;18.55;1.70;;;8.60;99.90;;;;;;5116807;28;20086;-79
2023/03/25 03:20:56;;;;;;;11.38;1.88;;;8.50;99.90;;;;;;5099551;28;20048;-79
2023/03/25 03:23:39;;;;;;;14.30;2.35;;;8.50;99.90;;;;;;5096990;28;20176;-82
2023/03/25 03:26:20;;;;;;;14.57;1.80;;;8.60;99.90;;;;;;5097752;28;20134;-81
2023/03/25 03:28:54;;;;;;;12.45;1.45;;;8.60;99.90;;;;;;5099252;28;20076;-79
2023/03/25 03:31:28;;;;;;;18.08;1.90;;;8.60;99.90;;;;;;5097796;28;20044;-82
2023/03/25 03:34:04;;;;;;;15.02;1.80;;;8.70;99.90;;;;;;5096674;28;20121;-80
2023/03/25 03:36:37;;;;;;;14.82;2.15;;;8.70;99.90;;;;;;5079256;28;20489;-78
2023/03/25 03:39:27;;;;;;;16.02;1.83;;;8.70;99.90;;;;;;5097580;28;20048;-80
2023/03/25 03:42:02;;;;;;;13.40;2.08;;;8.70;99.90;;;;;;5095543;28;20043;-80
2023/03/25 03:44:38;;;;;;;18.95;3.03;;;8.70;99.90;;;;;;5096065;28;20472;-81
2023/03/25 03:47:11;;;;;;;7.88;1.17;;;8.70;99.90;;;;;;5096460;28;20423;-78
2023/03/25 03:49:41;;;;;;;18.73;2.13;;;8.70;99.90;;;;;;5098774;28;20333;-77
2023/03/25 03:52:10;;;;;;;14.98;1.80;;;8.60;99.90;;;;;;5098821;28;20044;-80
2023/03/25 03:55:02;;;;;;;16.65;2.33;;;8.50;99.90;;;;;;5096091;28;20044;-77
2023/03/25 03:57:28;;;;;;;20.88;2.38;;;8.50;99.90;;;;;;5113342;28;20040;-80
2023/03/25 04:00:10;;;;;;;20.38;2.33;;;8.50;99.90;;;;;;5100794;28;20170;-76
2023/03/25 04:02:43;;;;;;;14.35;1.80;;;8.50;99.90;;;;;;5102719;28;20387;-81
2023/03/25 04:05:12;;;;;;;12.95;2.20;;;8.50;99.90;;;;;;5101344;28;20135;-81
2023/03/25 04:07:40;;;;;;;13.85;2.28;;;8.50;99.90;;;;;;5101495;28;20051;-77
2023/03/25 04:10:15;;;;;;;16.13;2.35;;;8.50;99.90;;;;;;5101874;28;20050;-81
2023/03/25 04:12:46;;;;;;;13.07;1.73;;;8.50;99.90;;;;;;5102401;28;20044;-79
2023/03/25 04:15:12;;;;;;;15.77;3.45;;;8.50;99.90;;;;;;5102608;28;20040;-81
2023/03/25 04:17:38;;;;;;;15.43;2.00;;;8.60;99.90;;;;;;5101739;28;20482;-80
2023/03/25 04:20:10;;;;;;;15.40;1.85;;;8.50;99.90;;;;;;5103431;28;20286;-78
2023/03/25 04:22:36;;;;;;;14.68;2.05;;;8.60;99.90;;;;;;5101470;28;20052;-79
2023/03/25 04:25:05;;;;;;;11.23;2.50;;;8.50;99.90;;;;;;5100910;28;20044;-78
2023/03/25 04:27:31;;;;;;;18.48;2.30;;;8.50;99.90;;;;;;5099885;28;20048;-81
2023/03/25 04:30:00;;;;;;;16.02;2.22;;;8.50;99.90;;;;;;5083053;28;20059;-76
2023/03/25 04:32:26;;;;;;;16.30;2.60;;;8.50;99.90;;;;;;5100369;28;20051;-82
2023/03/25 04:34:56;;;;;;;13.55;2.42;;;8.50;99.90;;;;;;5082728;28;20083;-79
2023/03/25 04:37:24;;;;;;;14.48;2.63;;;8.40;99.90;;;;;;5101052;28;20078;-76
2023/03/25 04:39:52;;;;;;;20.70;2.78;;;8.50;99.90;;;;;;5099953;28;20047;-77
2023/03/25 04:42:18;;;;;;;15.13;2.50;;;8.60;99.90;;;;;;5099279;28;20044;-77
2023/03/25 04:44:44;;;;;;;19.75;2.97;;;8.50;99.90;;;;;;5101343;28;20048;-78
2023/03/25 04:47:15;;;;;;;21.55;3.95;;;8.40;99.90;;;;;;5102457;28;20049;-78
2023/03/25 04:49:43;;;;;;;20.60;3.15;;;8.50;99.90;;;;;;5103141;28;20082;-77
2023/03/25 04:52:10;;;;;;;17.52;2.88;;;8.50;99.90;;;;;;5100784;28;20044;-80
2023/03/25 04:54:37;;;;;;;18.42;3.53;;;8.50;99.90;;;;;;5102136;28;20044;-81
2023/03/25 04:57:03;;;;;;;21.10;3.53;;;8.40;99.90;;;;;;5099007;28;20044;-76
2023/03/25 04:59:29;;;;;;;15.93;3.65;;;8.50;99.90;;;;;;5100590;28;20050;-76
2023/03/25 05:01:55;;;;;;;15.43;3.22;;;8.50;99.90;;;;;;5099346;28;20135;-77
2023/03/25 05:04:23;;;;;;;17.33;2.78;;;8.50;99.90;;;;;;5098186;28;20131;-76
2023/03/25 05:06:50;;;;;;;14.98;3.03;;;8.50;99.90;;;;;;5100216;28;20079;-76
2023/03/25 05:09:20;;;;;;;14.43;2.92;;;8.50;99.90;;;;;;5098292;28;20059;-79
2023/03/25 05:11:48;;;;;;;18.15;4.05;;;8.50;99.90;;;;;;5096872;28;20044;-77
2023/03/25 05:14:17;;;;;;;21.02;3.20;;;8.40;99.90;;;;;;5100796;28;20048;-77
2023/03/25 05:16:44;;;;;;;15.65;3.13;;;8.40;99.90;;;;;;5098833;28;20084;-82
2023/03/25 05:19:10;;;;;;;14.68;3.17;;;8.40;99.90;;;;;;5099466;28;20076;-80
2023/03/25 05:21:38;;;;;;;16.50;3.57;;;8.30;99.90;;;;;;5100029;28;20054;-80
2023/03/25 05:24:07;;;;;;;19.25;4.00;;;8.40;99.90;;;;;;5119495;28;20052;-79
2023/03/25 05:26:33;;;;;;;19.42;4.00;;;8.30;99.90;;;;;;5085285;28;20055;-80
2023/03/25 05:29:01;;;;;;;21.30;4.10;;;8.30;99.90;;;;;;5120805;28;20070;-81
2023/03/25 05:31:27;;;;;;;19.83;4.68;;;8.20;99.90;;;;;;5119012;28;20039;-79
2023/03/25 05:33:53;;;;;;;20.88;4.43;;;8.20;99.90;;;;;;5118552;28;20091;-79
2023/03/25 05:36:20;;;;;;;15.75;4.57;;;8.20;99.90;;;;;;5118208;28;20127;-77
2023/03/25 05:38:47;;;;;;;19.85;4.15;;;8.10;99.90;;;;;;5116316;28;20131;-77
2023/03/25 05:41:16;;;;;;;20.15;4.40;;;8.10;99.90;;;;;;5118564;28;20047;-80
2023/03/25 05:43:46;;;;;;;19.65;4.05;;;8.10;99.90;;;;;;5122827;28;20040;-79
2023/03/25 05:46:13;;;;;;;19.85;4.97;;;8.10;99.90;;;;;;5087270;28;20122;-79
2023/03/25 05:48:42;;;;;;;19.15;5.20;;;8.10;99.90;;;;;;5119759;28;20079;-80
2023/03/25 05:51:20;;;;;;;21.33;5.03;;;8.10;99.90;;;;;;5099114;28;20075;-80
2023/03/25 05:53:50;;;;;;;24.85;4.80;;;8.00;99.90;;;;;;5103995;28;20108;-80
2023/03/25 05:56:21;;;;;;;18.85;4.50;;;8.10;99.90;;;;;;5124421;28;20114;-81
2023/03/25 05:58:49;;;;;;;18.42;4.38;;;8.10;99.90;;;;;;5123670;28;20047;-81
2023/03/25 06:01:16;;;;;;;12.73;3.13;;;8.10;99.90;;;;;;5125817;28;20039;-80
2023/03/25 06:03:43;;;;;;;17.27;3.30;;;8.10;99.90;;;;;;5124813;28;20050;-80
2023/03/25 06:06:12;;;;;;;;;;;8.10;99.90;;;;;;5126001;28;20046;-77
2023/03/25 06:08:42;;;;;;;15.55;2.47;;;8.10;99.90;;;;;;5107108;28;19927;-77
2023/03/25 06:11:12;;;;;;;10.40;1.65;;;8.10;99.90;;;;;;5107371;28;20046;-80
2023/03/25 06:13:39;;;;;;;13.32;2.33;;;8.20;99.90;;;;;;5123986;28;20099;-81
2023/03/25 06:16:07;;;;;;;9.48;2.10;;;8.10;99.90;;;;;;5107863;28;20055;-81
2023/03/25 06:18:36;;;;;;;14.70;1.77;;;8.10;99.90;;;;;;5090871;28;20048;-80
2023/03/25 06:21:03;;;;;;;12.93;2.10;;;8.00;99.90;;;;;;5126016;28;20103;-82
2023/03/25 06:23:30;;;;;;;9.80;1.20;;;8.00;99.90;;;;;;5124965;28;20130;-77
2023/03/25 06:25:57;;;;;;;13.52;1.52;;;8.00;99.90;;;;;;5108125;28;20039;-80
2023/03/25 06:28:23;;;;;;;;;;;8.00;99.90;;;;;;5124712;28;20084;-80
2023/03/25 06:30:49;;;;;;;10.63;1.23;;;8.00;99.90;;;;;;5127038;28;19942;-81
2023/03/25 06:33:18;;;;;;;14.05;1.67;;;8.00;99.90;;;;;;5105940;28;20141;-77
2023/03/25 06:35:48;;;;;;;11.40;1.55;;;7.90;99.90;;;;;;5105702;28;20039;-78
2023/03/25 06:38:14;;;;;;;9.73;1.52;;;7.90;99.90;;;;;;5123163;28;20044;-77
2023/03/25 06:40:40;;;;;;;11.00;2.28;;;7.90;99.90;;;;;;5124573;28;20047;-79
2023/03/25 06:43:06;;;;;;;15.30;1.98;;;7.90;99.90;;;;;;5122743;28;20051;-78
2023/03/25 06:45:32;;;;;;;13.88;2.03;;;7.90;99.90;;;;;;5121419;28;20039;-80
2023/03/25 06:47:59;;;;;;;18.20;2.30;;;8.00;99.90;;;;;;5101728;28;20112;-79
2023/03/25 06:50:25;;;;;;;20.60;1.52;;;8.00;99.90;;;;;;5121468;28;20043;-81
2023/03/25 06:52:51;;;;;;;22.67;2.08;;;8.00;99.90;;;;;;5123984;28;20050;-80
2023/03/25 06:55:17;;;;;;;21.38;2.30;;;8.10;99.90;;;;;;5103166;28;20043;-78
2023/03/25 06:57:43;;;;;;;18.27;2.40;;;8.20;99.90;;;;;;5102789;28;20050;-79
2023/03/25 07:00:13;;;;;;;23.15;1.85;;;8.20;99.90;;;;;;5103109;28;20048;-80
2023/03/25 07:02:39;;;;;;;14.50;2.17;;;8.30;99.90;;;;;;5102551;28;20043;-78
2023/03/25 07:05:06;;;;;;;16.95;2.13;;;8.40;99.90;;;;;;5119716;28;20147;-78
2023/03/25 07:07:32;;;;;;;16.60;2.35;;;8.40;99.90;;;;;;5099368;28;20047;-77
2023/03/25 07:09:57;;;;;;;19.83;2.60;;;8.50;99.90;;;;;;5100727;28;20047;-81
2023/03/25 07:12:24;;;;;;;12.68;2.42;;;8.60;99.90;;;;;;5101042;28;20043;-78
2023/03/25 07:14:55;;;;;;;15.77;3.00;;;8.80;99.90;;;;;;5101947;28;20387;-79
2023/03/25 07:17:21;;;;;;;28.30;4.35;;;8.80;99.90;;;;;;5119658;28;20043;-77
2023/03/25 07:19:47;;;;;;;17.55;2.97;;;8.90;99.90;;;;;;5118231;28;20052;-77
2023/03/25 07:22:13;;;;;;;19.08;2.40;;;9.00;99.90;;;;;;5118333;28;20153;-78
2023/03/25 07:24:39;;;;;;;19.80;2.60;;;9.10;99.90;;;;;;5119359;28;20048;-80
2023/03/25 07:27:04;;;;;;;21.35;2.63;;;9.10;99.90;;;;;;5119276;28;20039;-77
2023/03/25 07:29:30;;;;;;;20.90;2.70;;;9.10;99.90;;;;;;5082946;28;20035;-78
2023/03/25 07:31:56;;;;;;;19.70;2.47;;;9.00;99.90;;;;;;5099015;28;20039;-77
2023/03/25 07:34:22;;;;;;;21.90;2.28;;;8.90;99.90;;;;;;5099642;28;20048;-77
2023/03/25 07:36:47;;;;;;;22.13;2.50;;;8.80;99.90;;;;;;5120927;28;20048;-80
2023/03/25 07:39:13;;;;;;;19.83;2.97;;;8.90;99.90;;;;;;5101508;28;20055;-76
2023/03/25 07:41:39;;;;;;;24.33;2.15;;;8.80;99.90;;;;;;5100150;28;20471;-78
2023/03/25 07:44:05;;;;;;;23.30;2.90;;;8.80;99.90;;;;;;5068602;28;20055;-79
2023/03/25 07:46:30;;;;;;;29.33;3.75;;;8.80;99.90;;;;;;5102597;28;20068;-80
2023/03/25 07:48:56;;;;;;;28.10;2.85;;;8.90;99.90;;;;;;5102381;28;20555;-78
2023/03/25 07:51:22;;;;;;;28.77;3.13;;;8.90;99.90;;;;;;5105079;28;20036;-81
2023/03/25 07:53:47;;;;;;;26.35;2.85;;;8.80;99.90;;;;;;5119894;28;20039;-77
2023/03/25 07:56:14;;;;;;;19.25;2.53;;;8.80;99.90;;;;;;5103767;28;20054;-80
2023/03/25 07:58:40;;;;;;;22.70;2.67;;;8.80;99.90;;;;;;5119782;28;20128;-82
2023/03/25 08:01:07;;;;;;;15.52;1.60;;;9.00;99.90;;;;;;5118946;28;20048;-77
2023/03/25 08:03:33;;;;;;;22.80;1.83;;;9.10;99.90;;;;;;5100479;28;20130;-77
2023/03/25 08:06:02;;;;;;;19.63;1.80;;;9.10;99.90;;;;;;5100349;28;20422;-80
2023/03/25 08:08:28;;;;;;;18.10;1.80;;;9.20;99.90;;;;;;5099707;28;20059;-79
2023/03/25 08:10:55;;;;;;;20.60;2.25;;;9.30;99.90;;;;;;5118295;28;20131;-78
2023/03/25 08:13:21;;;;;;;21.97;2.43;;;9.40;99.90;;;;;;5116904;28;20051;-80
2023/03/25 08:15:47;;;;;;;20.27;1.80;;;9.50;99.90;;;;;;5119886;28;20048;-79
2023/03/25 08:18:13;;;;;;;20.83;2.45;;;9.60;99.90;;;;;;5101007;28;20048;-79
2023/03/25 08:20:39;;;;;;;15.73;1.38;;;9.60;99.90;;;;;;5099436;28;20055;-77
2023/03/25 08:23:09;;;;;;;17.85;1.50;;;9.60;99.90;;;;;;5101009;28;20059;-81
2023/03/25 08:25:39;;;;;;;13.00;1.38;;;9.70;99.90;;;;;;5102632;28;20044;-80
2023/03/25 08:28:05;;;;;;;16.27;1.27;;;9.60;99.90;;;;;;5121947;28;20040;-78
2023/03/25 08:30:37;;;;;;;22.48;2.20;;;9.50;99.90;;;;;;5104657;28;20047;-78
2023/03/25 08:33:05;;;;;;;16.00;1.23;;;9.40;99.90;;;;;;5121554;28;20047;-79
2023/03/25 08:35:33;;;;;;;16.15;1.73;;;9.30;99.90;;;;;;5103508;28;20055;-79
2023/03/25 08:38:00;;;;;;;18.08;1.73;;;9.30;99.90;;;;;;5122248;28;20407;-79
2023/03/25 08:40:26;;;;;;;16.97;2.40;;;9.30;99.90;;;;;;5103866;28;20083;-81
2023/03/25 08:42:53;;;;;;;19.08;1.75;;;9.20;99.90;;;;;;5103820;28;20290;-79
2023/03/25 08:45:19;;;;;;;23.70;2.22;;;9.30;99.90;;;;;;5124927;28;20051;-79
2023/03/25 08:47:45;;;;;;;20.02;3.55;;;9.40;99.90;;;;;;5107902;28;20387;-76
2023/03/25 08:50:11;;;;;;;28.33;2.90;;;9.50;99.90;;;;;;5106827;28;20391;-78
2023/03/25 08:52:37;;;;;;;15.27;1.75;;;9.50;99.90;;;;;;5107788;28;20044;-79
2023/03/25 08:55:08;;;;;;;18.30;1.92;;;9.50;99.90;;;;;;5125525;28;20046;-79
2023/03/25 08:57:36;;;;;;;22.90;2.90;;;9.60;99.90;;;;;;5092295;28;20083;-79
2023/03/25 09:00:11;;;;;;;27.08;3.53;;;9.80;99.90;;;;;;5107126;28;20050;-80
2023/03/25 09:02:37;;;;;;;18.50;2.40;;;9.90;99.90;;;;;;5090010;28;20160;-82
2023/03/25 09:05:03;;;;;;;20.75;2.47;;;9.90;99.90;;;;;;5124736;28;20515;-78
2023/03/25 09:07:29;;;;;;;17.73;2.22;;;9.90;99.90;;;;;;5124254;28;20141;-76
2023/03/25 09:09:55;;;;;;;18.77;2.85;;;9.90;99.90;;;;;;5125039;28;20082;-79
2023/03/25 09:12:21;;;;;;;15.55;2.15;;;9.80;99.90;;;;;;5122538;28;20484;-78
2023/03/25 09:14:46;;;;;;;18.50;1.65;;;9.80;99.90;;;;;;5123583;28;20089;-77
2023/03/25 09:17:12;;;;;;;17.48;3.03;;;9.70;99.90;;;;;;5122702;28;20039;-81
2023/03/25 09:19:38;;;;;;;21.63;1.98;;;9.90;99.90;;;;;;5101419;28;20048;-81
2023/03/25 09:22:05;;;;;;;26.60;3.65;;;9.90;99.90;;;;;;5088753;28;20043;-79
2023/03/25 09:24:32;;;;;;;16.27;2.17;;;10.00;99.90;;;;;;5080836;28;20136;-84
2023/03/25 09:27:00;;;;;;;17.20;2.88;;;10.30;99.90;;;;;;5096942;28;20047;-82
2023/03/25 09:29:27;;;;;;;15.88;1.75;;;10.50;99.90;;;;;;5097298;28;20044;-82
2023/03/25 09:31:53;;;;;;;23.52;2.28;;;10.70;99.90;;;;;;5080534;28;20062;-79
2023/03/25 09:34:19;;;;;;;24.23;2.60;;;10.80;99.90;;;;;;5096268;28;20048;-80
2023/03/25 09:36:45;;;;;;;25.17;1.70;;;10.80;99.90;;;;;;5096065;28;20407;-82
2023/03/25 09:39:10;;;;;;;15.48;2.08;;;10.70;99.90;;;;;;5095618;28;20044;-79
2023/03/25 09:41:42;;;;;;;25.75;2.60;;;10.70;99.90;;;;;;5096423;28;20048;-80
2023/03/25 09:44:11;;;;;;;19.45;2.00;;;10.40;99.90;;;;;;5080823;28;20051;-77
2023/03/25 09:46:38;;;;;;;20.63;2.35;;;10.30;99.90;;;;;;5097100;28;20051;-79
2023/03/25 09:49:17;;;;;;;18.05;2.72;;;10.40;99.90;;;;;;5097918;28;20127;-80
2023/03/25 09:51:46;;;;;;;19.40;1.60;;;10.50;99.90;;;;;;5080453;28;20060;-81
2023/03/25 09:54:26;;;;;;;17.48;1.55;;;10.60;99.90;;;;;;5097422;28;20096;-80
2023/03/25 09:56:55;;;;;;;18.20;2.00;;;10.70;99.90;;;;;;5094777;28;20074;-81
2023/03/25 09:59:24;;;;;;;16.55;1.23;;;10.50;99.90;;;;;;5097760;28;20043;-80
2023/03/25 10:02:01;;;;;;;17.65;1.50;;;10.60;99.90;;;;;;5097984;28;20487;-78
2023/03/25 10:04:53;;;;;;;11.25;0.93;;;10.50;99.90;;;;;;5079688;28;20052;-79
2023/03/25 10:07:49;;;;;;;20.95;1.70;;;10.50;99.90;;;;;;5074179;28;20521;-80
2023/03/25 10:10:32;;;;;;;20.73;2.47;;;10.20;99.90;;;;;;5042324;28;20061;-78
2023/03/25 10:13:29;;;;;;;18.63;2.70;;;10.10;99.90;;;;;;5095752;28;20511;-78
2023/03/25 10:15:58;;;;;;;19.80;2.20;;;9.80;99.90;;;;;;5097254;28;20113;-78
2023/03/25 10:18:47;;;;;;;18.85;1.80;;;9.70;99.90;;;;;;5096055;28;20136;-80
2023/03/25 10:21:20;;;;;;;15.25;1.80;;;9.80;99.90;;;;;;5080380;28;20070;-80
2023/03/25 10:24:17;;;;;;;20.50;2.58;;;9.90;99.90;;;;;;5096718;28;20052;-81
2023/03/25 10:27:02;;;;;;;19.50;2.10;;;10.00;99.90;;;;;;5063388;28;20084;-83
2023/03/25 10:29:39;;;;;;;14.77;1.92;;;10.00;99.90;;;;;;5097200;28;20040;-76
2023/03/25 10:32:19;;;;;;;21.70;2.35;;;10.00;99.90;;;;;;5096821;28;20051;-79
2023/03/25 10:34:51;;;;;;;21.48;1.50;;;10.00;99.90;;;;;;5096731;28;20048;-78
2023/03/25 10:37:29;;;;;;;21.55;2.35;;;9.90;99.90;;;;;;5095413;28;20040;-78
2023/03/25 10:40:05;;;;;;;15.15;2.78;;;9.80;99.90;;;;;;5099461;28;20057;-79
2023/03/25 10:42:45;;;;;;;15.85;1.40;;;10.10;99.90;;;;;;5097114;28;20094;-79
2023/03/25 10:45:17;;;;;;;21.70;2.03;;;10.30;99.90;;;;;;5096018;28;20460;-80
2023/03/25 10:47:44;;;;;;;21.67;1.58;;;10.50;99.90;;;;;;5095481;28;20044;-79
2023/03/25 10:50:15;;;;;;;18.67;1.65;;;10.70;99.90;;;;;;5094921;28;20052;-76
2023/03/25 10:52:42;;;;;;;15.85;1.30;;;10.90;99.90;;;;;;5077035;28;20539;-77
2023/03/25 10:55:22;;;;;;;17.20;1.58;;;11.00;99.90;;;;;;5093992;28;20144;-77
2023/03/25 10:57:50;;;;;;;22.60;1.65;;;11.10;99.90;;;;;;5078650;28;20052;-78
2023/03/25 11:00:17;;;;;;;12.25;1.33;;;11.20;99.90;;;;;;5095392;28;20046;-77
2023/03/25 11:02:44;;;;;;;17.13;1.60;;;10.90;99.90;;;;;;5095205;28;20048;-78
2023/03/25 11:05:13;;;;;;;;;;;10.90;99.90;;;;;;5076803;28;20051;-77
2023/03/25 11:07:45;;;;;;;12.55;1.75;;;10.80;99.90;;;;;;5094907;28;19926;-74
2023/03/25 11:10:26;;;;;;;13.20;1.52;;;10.80;99.90;;;;;;5096844;28;20099;-77
2023/03/25 11:12:53;;;;;;;22.20;1.25;;;10.80;99.90;;;;;;5095253;28;20048;-75
2023/03/25 11:15:32;;;;;;;17.35;1.40;;;10.80;99.90;;;;;;5094889;28;20547;-75
2023/03/25 11:18:17;;;;;;;17.67;1.10;;;10.90;99.90;;;;;;5095998;28;20055;-80
2023/03/25 11:20:49;;;;;;;16.20;1.85;;;11.20;99.90;;;;;;5076560;28;20219;-76
2023/03/25 11:23:18;;;;;;;9.75;0.85;;;11.40;99.90;;;;;;5093849;28;20411;-75
2023/03/25 11:25:44;;;;;;;17.45;1.20;;;11.60;99.90;;;;;;5094913;28;20059;-80
2023/03/25 11:28:20;;;;;;;13.00;1.30;;;11.70;99.90;;;;;;5093316;28;20044;-77
2023/03/25 11:31:24;;;;;;;19.02;1.30;;;11.70;99.90;;;;;;5093370;28;20298;-80
2023/03/25 11:34:06;;;;;;;10.98;1.40;;;11.70;99.90;;;;;;5093166;28;20136;-79
2023/03/25 11:36:34;;;;;;;12.40;1.00;;;12.00;99.90;;;;;;5093747;28;20095;-80
2023/03/25 11:39:14;;;;;;;17.98;1.58;;;12.30;99.90;;;;;;5095074;28;20051;-78
2023/03/25 11:41:40;;;;;;;11.25;1.35;;;12.30;99.90;;;;;;5079013;28;20126;-79
2023/03/25 11:44:06;;;;;;;15.98;1.20;;;12.20;99.90;;;;;;5095173;28;20080;-79
2023/03/25 11:46:33;;;;;;;12.43;1.53;;;12.10;99.90;;;;;;5092969;28;20036;-77
2023/03/25 11:49:08;;;;;;;15.80;1.27;;;12.20;99.90;;;;;;5094582;28;20274;-80
2023/03/25 11:51:35;;;;;;;19.95;1.38;;;12.10;99.90;;;;;;5093719;28;20407;-79
2023/03/25 11:54:07;;;;;;;14.25;1.58;;;12.10;99.90;;;;;;5094817;28;20087;-81
2023/03/25 11:56:41;;;;;;;14.25;1.00;;;12.00;99.90;;;;;;5093043;28;20044;-78
2023/03/25 11:59:44;;;;;;;12.82;1.00;;;12.10;99.90;;;;;;5093298;28;20091;-79
2023/03/25 12:02:24;;;;;;;15.75;2.35;;;11.80;99.90;;;;;;5077197;28;20047;-78
2023/03/25 12:05:12;;;;;;;11.05;0.95;;;11.90;99.90;;;;;;5094289;28;20514;-78
2023/03/25 12:07:46;;;;;;;13.90;1.70;;;12.00;99.90;;;;;;5094392;28;20040;-78
2023/03/25 12:10:51;;;;;;;16.75;1.15;;;12.00;99.90;;;;;;5093861;28;20122;-80
2023/03/25 12:13:22;;;;;;;12.43;1.23;;;12.00;99.90;;;;;;5093323;28;20044;-80
2023/03/25 12:16:00;;;;;;;13.63;1.05;;;11.90;99.90;;;;;;5094219;28;20147;-78
2023/03/25 12:18:34;;;;;;;11.77;1.38;;;12.00;99.90;;;;;;5093553;28;20059;-76
2023/03/25 12:21:33;;;;;;;18.20;2.33;;;12.10;99.90;;;;;;5098767;28;20044;-76
2023/03/25 12:24:25;;;;;;;11.77;0.93;;;12.30;99.90;;;;;;5096857;28;20063;-76
2023/03/25 12:27:12;;;;;;;15.93;1.00;;;12.40;99.90;;;;;;5074151;28;20380;-76
2023/03/25 12:29:38;;;;;;;15.98;0.82;;;12.50;99.90;;;;;;5096400;28;20105;-76
2023/03/25 12:32:21;;;;;;;15.90;1.38;;;12.50;99.90;;;;;;5096965;28;20051;-79
2023/03/25 12:35:05;;;;;;;16.85;1.45;;;12.30;99.90;;;;;;5096699;28;20127;-75
2023/03/25 12:38:12;;;;;;;14.98;1.58;;;12.30;99.90;;;;;;5097898;28;20054;-77
2023/03/25 12:40:47;;;;;;;16.83;1.15;;;12.50;99.90;;;;;;5096898;28;20480;-76
2023/03/25 12:43:17;;;;;;;9.45;1.08;;;12.30;99.90;;;;;;5098660;28;20044;-77
2023/03/25 12:45:51;;;;;;;11.05;1.08;;;12.40;99.90;;;;;;5080465;28;20048;-77
2023/03/25 12:48:35;;;;;;;14.57;0.98;;;12.40;99.90;;;;;;5097566;28;20087;-77
2023/03/25 12:51:32;;;;;;;11.55;1.55;;;12.00;99.90;;;;;;5097076;28;20036;-76
2023/03/25 12:54:42;;;;;;;10.15;0.90;;;11.90;99.90;;;;;;5098181;28;20059;-79
2023/03/25 12:57:31;;;;;;;18.02;1.40;;;11.90;99.90;;;;;;5092200;28;20048;-79
2023/03/25 13:00:19;;;;;;;18.08;2.22;;;11.70;99.90;;;;;;5096935;28;20051;-78
2023/03/25 13:03:11;;;;;;;74.43;5.93;;;11.90;99.90;;;;;;5096686;28;20369;-76
2023/03/25 13:05:40;;;;;;;13.98;1.08;;;12.30;99.90;;;;;;5080495;28;20584;-78
2023/03/25 13:08:18;;;;;;;17.40;2.17;;;12.50;99.90;;;;;;5097075;28;20407;-78